createdAt,value
2022-09-26T00:01:59.687Z,5.15
2022-09-26T00:04:04.444Z,5.57
2022-09-26T00:06:08.247Z,6.15
2022-09-26T00:10:11.541Z,5.95
2022-09-26T00:12:13.179Z,9.10
2022-09-26T00:14:18.953Z,10.18
2022-09-26T00:16:21.101Z,9.55
2022-09-26T00:18:23.352Z,8.32
2022-09-26T00:20:25.056Z,8.15
2022-09-26T00:22:26.677Z,8.35
2022-09-26T00:24:28.251Z,8.32
2022-09-26T00:26:32.200Z,7.82
2022-09-26T00:28:34.086Z,9.07
2022-09-26T00:30:37.213Z,9.00
2022-09-26T00:32:38.904Z,9.57
2022-09-26T00:34:40.498Z,9.43
2022-09-26T00:36:42.408Z,9.57
2022-09-26T00:38:44.657Z,9.10
2022-09-26T00:40:47.363Z,8.98
2022-09-26T00:42:48.950Z,8.90
2022-09-26T00:44:54.979Z,9.68
2022-09-26T00:46:56.605Z,8.63
2022-09-26T00:49:43.132Z,8.88
2022-09-26T00:51:53.253Z,8.73
2022-09-26T00:53:56.148Z,9.02
2022-09-26T00:56:06.237Z,9.33
2022-09-26T00:58:21.316Z,8.70
2022-09-26T01:00:24.161Z,8.65
2022-09-26T01:02:27.780Z,8.40
2022-09-26T01:06:31.686Z,7.30
2022-09-26T01:08:38.890Z,7.07
2022-09-26T01:10:41.092Z,7.00
2022-09-26T01:12:43.789Z,6.60
2022-09-26T01:14:47.501Z,6.00
2022-09-26T01:16:51.387Z,6.85
2022-09-26T01:18:53.018Z,6.55
2022-09-26T01:20:57.582Z,7.28
2022-09-26T01:23:14.334Z,7.45
2022-09-26T01:25:49.953Z,8.30
2022-09-26T01:27:51.530Z,7.57
2022-09-26T01:30:08.436Z,7.65
2022-09-26T01:32:41.807Z,7.30
2022-09-26T01:34:53.461Z,8.32
2022-09-26T01:36:57.876Z,7.45
2022-09-26T01:39:14.578Z,7.72
2022-09-26T01:41:29.231Z,8.15
2022-09-26T01:43:40.773Z,8.60
2022-09-26T01:46:04.142Z,9.48
2022-09-26T01:48:09.880Z,8.93
2022-09-26T01:50:33.125Z,7.38
2022-09-26T01:52:41.170Z,7.90
2022-09-26T01:55:09.339Z,8.45
2022-09-26T01:57:15.509Z,8.30
2022-09-26T01:59:24.085Z,7.82
2022-09-26T02:01:28.164Z,8.38
2022-09-26T02:03:35.091Z,7.28
2022-09-26T02:05:41.909Z,8.05
2022-09-26T02:07:56.368Z,8.10
2022-09-26T02:10:05.705Z,7.60
2022-09-26T02:12:09.448Z,7.47
2022-09-26T02:14:17.851Z,7.88
2022-09-26T02:16:24.514Z,7.55
2022-09-26T02:18:35.431Z,7.55
2022-09-26T02:20:38.432Z,7.78
2022-09-26T02:22:40.187Z,7.75
2022-09-26T02:24:41.793Z,7.47
2022-09-26T02:26:43.676Z,7.32
2022-09-26T02:28:46.080Z,8.00
2022-09-26T02:30:49.867Z,7.25
2022-09-26T02:34:53.168Z,7.63
2022-09-26T02:36:57.178Z,8.10
2022-09-26T02:38:58.749Z,7.25
2022-09-26T02:41:19.129Z,7.78
2022-09-26T02:43:42.192Z,7.07
2022-09-26T02:45:47.722Z,7.45
2022-09-26T02:47:49.324Z,7.40
2022-09-26T02:50:10.471Z,8.02
2022-09-26T02:52:58.479Z,8.23
2022-09-26T02:55:18.124Z,7.97
2022-09-26T02:58:09.359Z,8.23
2022-09-26T03:00:19.230Z,8.02
2022-09-26T03:02:34.025Z,8.13
2022-09-26T03:04:49.481Z,8.38
2022-09-26T03:06:55.607Z,7.97
2022-09-26T03:08:57.561Z,8.23
2022-09-26T03:11:02.826Z,7.82
2022-09-26T03:13:11.702Z,8.50
2022-09-26T03:15:14.745Z,8.75
2022-09-26T03:17:18.984Z,7.45
2022-09-26T03:19:22.509Z,7.53
2022-09-26T03:21:25.541Z,8.48
2022-09-26T03:23:28.027Z,8.30
2022-09-26T03:25:29.891Z,7.93
2022-09-26T03:27:32.096Z,8.77
2022-09-26T03:29:33.970Z,7.53
2022-09-26T03:31:35.584Z,8.00
2022-09-26T03:33:37.306Z,7.65
2022-09-26T03:35:39.043Z,7.30
2022-09-26T03:37:40.671Z,6.90
2022-09-26T03:39:42.321Z,7.10
2022-09-26T03:41:43.985Z,6.50
2022-09-26T03:43:45.786Z,6.35
2022-09-26T03:45:47.455Z,6.93
2022-09-26T03:47:55.879Z,6.25
2022-09-26T03:49:57.435Z,6.45
2022-09-26T03:51:59.063Z,6.80
2022-09-26T03:54:00.683Z,6.72
2022-09-26T03:56:06.783Z,6.25
2022-09-26T03:58:08.481Z,7.20
2022-09-26T04:00:10.715Z,6.55
2022-09-26T04:02:12.588Z,7.03
2022-09-26T04:04:16.366Z,6.22
2022-09-26T04:08:22.142Z,6.82
2022-09-26T04:10:24.293Z,6.78
2022-09-26T04:12:25.912Z,6.50
2022-09-26T04:14:27.768Z,6.90
2022-09-26T04:16:29.678Z,6.80
2022-09-26T04:18:32.473Z,6.40
2022-09-26T04:20:34.211Z,7.15
2022-09-26T04:22:35.830Z,7.30
2022-09-26T04:24:37.717Z,7.18
2022-09-26T04:26:41.339Z,7.75
2022-09-26T04:28:43.068Z,7.85
2022-09-26T04:30:44.676Z,7.57
2022-09-26T04:32:46.756Z,7.95
2022-09-26T04:34:48.349Z,7.70
2022-09-26T04:36:51.381Z,8.95
2022-09-26T04:38:52.958Z,9.18
2022-09-26T04:40:55.075Z,8.68
2022-09-26T04:42:57.027Z,9.02
2022-09-26T04:44:58.635Z,8.70
2022-09-26T04:47:00.339Z,9.07
2022-09-26T04:49:02.584Z,9.43
2022-09-26T04:51:05.933Z,8.30
2022-09-26T04:53:07.618Z,9.20
2022-09-26T04:55:09.576Z,7.82
2022-09-26T04:57:17.300Z,8.40
2022-09-26T04:59:21.193Z,8.70
2022-09-26T05:01:23.299Z,8.20
2022-09-26T05:03:24.987Z,9.07
2022-09-26T05:05:26.630Z,9.13
2022-09-26T05:07:29.501Z,9.00
2022-09-26T05:09:35.693Z,9.90
2022-09-26T05:11:38.047Z,8.60
2022-09-26T05:13:39.735Z,8.40
2022-09-26T05:15:42.829Z,7.90
2022-09-26T05:17:45.507Z,9.35
2022-09-26T05:19:47.066Z,10.32
2022-09-26T05:21:48.657Z,10.07
2022-09-26T05:24:08.727Z,10.38
2022-09-26T05:26:23.339Z,10.43
2022-09-26T05:28:26.030Z,10.50
2022-09-26T05:30:31.381Z,10.20
2022-09-26T05:32:33.060Z,11.77
2022-09-26T05:34:34.741Z,11.80
2022-09-26T05:36:36.906Z,11.43
2022-09-26T05:38:38.607Z,12.05
2022-09-26T05:40:58.479Z,10.75
2022-09-26T05:43:01.606Z,11.75
2022-09-26T05:45:03.796Z,11.32
2022-09-26T05:47:05.804Z,12.50
2022-09-26T05:49:07.533Z,12.23
2022-09-26T05:51:12.525Z,11.52
2022-09-26T05:53:14.202Z,14.93
2022-09-26T05:55:16.278Z,13.15
2022-09-26T05:57:17.855Z,12.95
2022-09-26T05:59:19.506Z,11.80
2022-09-26T06:01:21.229Z,12.63
2022-09-26T06:03:23.096Z,13.15
2022-09-26T06:05:25.354Z,12.77
2022-09-26T06:07:27.002Z,12.60
2022-09-26T06:09:29.011Z,10.88
2022-09-26T06:11:33.391Z,12.73
2022-09-26T06:13:36.901Z,11.20
2022-09-26T06:15:39.998Z,11.00
2022-09-26T06:17:42.054Z,11.48
2022-09-26T06:19:44.533Z,10.82
2022-09-26T06:21:46.083Z,11.23
2022-09-26T06:23:47.783Z,10.80
2022-09-26T06:25:49.735Z,10.85
2022-09-26T06:27:59.781Z,11.88
2022-09-26T06:30:01.937Z,11.02
2022-09-26T06:32:03.990Z,10.93
2022-09-26T06:34:05.719Z,11.63
2022-09-26T06:36:10.783Z,12.40
2022-09-26T06:38:12.553Z,11.65
2022-09-26T06:40:14.954Z,12.15
2022-09-26T06:42:16.570Z,11.43
2022-09-26T06:44:18.422Z,10.40
2022-09-26T06:46:21.137Z,10.82
2022-09-26T06:48:25.009Z,11.95
2022-09-26T06:50:27.001Z,11.52
2022-09-26T06:52:34.052Z,11.32
2022-09-26T06:54:35.631Z,9.35
2022-09-26T06:56:37.337Z,7.03
2022-09-26T06:58:39.415Z,7.13
2022-09-26T07:00:41.268Z,7.28
2022-09-26T07:02:51.342Z,7.03
2022-09-26T07:04:53.022Z,7.53
2022-09-26T07:06:54.667Z,7.13
2022-09-26T07:09:03.119Z,6.75
2022-09-26T07:11:31.226Z,7.22
2022-09-26T07:13:29.370Z,7.30
2022-09-26T07:15:33.465Z,8.25
2022-09-26T07:17:35.103Z,9.00
2022-09-26T07:19:36.653Z,8.73
2022-09-26T07:21:39.413Z,7.47
2022-09-26T07:23:41.049Z,6.57
2022-09-26T07:25:46.962Z,7.00
2022-09-26T07:27:52.823Z,4.47
2022-09-26T07:29:54.637Z,4.95
2022-09-26T07:31:56.625Z,4.97
2022-09-26T07:33:58.355Z,6.65
2022-09-26T07:36:05.015Z,5.63
2022-09-26T07:38:07.209Z,7.97
2022-09-26T07:40:09.651Z,7.10
2022-09-26T07:42:14.555Z,6.95
2022-09-26T07:46:56.437Z,4.72
2022-09-26T07:49:16.788Z,5.10
2022-09-26T07:51:19.800Z,4.88
2022-09-26T07:53:21.449Z,5.00
2022-09-26T07:55:27.176Z,5.70
2022-09-26T07:57:29.718Z,5.00
2022-09-26T07:59:35.840Z,5.32
2022-09-26T08:01:38.423Z,5.30
2022-09-26T08:03:45.490Z,5.10
2022-09-26T08:05:47.074Z,5.00
2022-09-26T08:07:49.456Z,5.03
2022-09-26T08:09:54.067Z,4.93
2022-09-26T08:11:56.277Z,4.60
2022-09-26T08:13:57.905Z,4.35
2022-09-26T08:16:04.547Z,5.05
2022-09-26T08:18:08.313Z,5.05
2022-09-26T08:22:12.245Z,5.00
2022-09-26T08:24:13.936Z,5.70
2022-09-26T08:26:15.908Z,5.93
2022-09-26T08:28:18.335Z,5.72
2022-09-26T08:30:20.046Z,5.35
2022-09-26T08:32:21.972Z,5.57
2022-09-26T08:34:25.670Z,5.55
2022-09-26T08:36:27.548Z,6.28
2022-09-26T08:38:29.521Z,5.32
2022-09-26T08:40:44.670Z,5.65
2022-09-26T08:43:04.917Z,5.38
2022-09-26T08:45:35.710Z,5.47
2022-09-26T08:47:49.840Z,5.68
2022-09-26T08:50:00.168Z,5.85
2022-09-26T08:52:07.403Z,5.90
2022-09-26T08:54:19.089Z,6.18
2022-09-26T08:56:34.507Z,6.97
2022-09-26T08:58:44.828Z,7.22
2022-09-26T09:00:48.693Z,5.57
2022-09-26T09:03:40.244Z,6.13
2022-09-26T09:05:49.480Z,6.35
2022-09-26T09:07:54.202Z,6.53
2022-09-26T09:10:01.500Z,5.80
2022-09-26T09:12:12.961Z,6.32
2022-09-26T09:14:38.811Z,6.25
2022-09-26T09:17:13.741Z,5.82
2022-09-26T09:19:42.861Z,4.05
2022-09-26T09:22:06.216Z,4.93
2022-09-26T09:24:19.313Z,5.72
2022-09-26T09:29:49.427Z,6.18
2022-09-26T09:31:52.291Z,7.43
2022-09-26T09:33:58.816Z,7.47
2022-09-26T09:36:06.337Z,6.63
2022-09-26T09:38:14.380Z,5.63
2022-09-26T09:40:40.896Z,5.35
2022-09-26T09:42:49.636Z,4.65
2022-09-26T09:44:59.842Z,5.03
2022-09-26T09:47:01.580Z,4.10
2022-09-26T09:49:09.552Z,4.45
2022-09-26T09:51:39.339Z,4.47
2022-09-26T09:54:19.417Z,4.93
2022-09-26T09:56:32.065Z,3.80
2022-09-26T09:59:14.781Z,4.10
2022-09-26T10:01:25.454Z,4.00
2022-09-26T10:03:42.432Z,6.22
2022-09-26T10:05:46.674Z,6.10
2022-09-26T10:07:49.832Z,4.93
2022-09-26T10:09:52.014Z,4.80
2022-09-26T10:11:54.304Z,4.45
2022-09-26T10:14:02.078Z,3.90
2022-09-26T10:16:08.303Z,4.18
2022-09-26T10:18:26.677Z,3.90
2022-09-26T10:20:38.459Z,3.95
2022-09-26T10:22:45.531Z,3.33
2022-09-26T10:24:47.990Z,3.53
2022-09-26T10:26:50.405Z,3.85
2022-09-26T10:28:57.251Z,4.18
2022-09-26T10:31:10.656Z,4.35
2022-09-26T10:33:25.400Z,4.10
2022-09-26T10:35:41.581Z,5.15
2022-09-26T10:37:43.248Z,4.57
2022-09-26T10:40:10.965Z,4.38
2022-09-26T10:42:21.553Z,4.00
2022-09-26T10:44:31.098Z,3.50
2022-09-26T10:46:32.915Z,4.03
2022-09-26T10:48:43.341Z,4.03
2022-09-26T10:50:51.260Z,4.00
2022-09-26T10:53:09.064Z,4.03
2022-09-26T10:55:18.404Z,3.00
2022-09-26T10:57:23.235Z,3.22
2022-09-26T10:59:36.223Z,3.22
2022-09-26T11:01:44.321Z,2.90
2022-09-26T11:03:46.245Z,3.08
2022-09-26T11:05:57.522Z,3.17
2022-09-26T11:07:59.195Z,3.08
2022-09-26T11:10:04.305Z,2.90
2022-09-26T11:12:26.703Z,2.78
2022-09-26T11:14:34.396Z,2.80
2022-09-26T11:16:44.801Z,2.70
2022-09-26T11:18:54.352Z,2.38
2022-09-26T11:21:03.203Z,2.70
2022-09-26T11:23:30.705Z,2.65
2022-09-26T11:25:54.412Z,2.45
2022-09-26T11:28:31.524Z,2.70
2022-09-26T11:32:43.192Z,2.50
2022-09-26T11:34:45.367Z,2.97
2022-09-26T11:37:12.096Z,2.22
2022-09-26T11:39:48.906Z,2.65
2022-09-26T11:42:15.324Z,2.67
2022-09-26T11:44:30.193Z,2.47
2022-09-26T11:46:38.519Z,2.35
2022-09-26T11:48:58.456Z,2.30
2022-09-26T11:51:05.637Z,2.45
2022-09-26T11:53:32.461Z,2.35
2022-09-26T11:55:54.297Z,2.60
2022-09-26T11:58:14.932Z,2.47
2022-09-26T12:00:26.467Z,2.50
2022-09-26T12:02:47.532Z,2.35
2022-09-26T12:04:55.079Z,2.42
2022-09-26T12:07:02.444Z,2.13
2022-09-26T12:09:32.086Z,2.30
2022-09-26T12:11:53.168Z,2.63
2022-09-26T12:13:54.731Z,2.53
2022-09-26T12:16:24.326Z,1.85
2022-09-26T12:18:39.840Z,1.98
2022-09-26T12:21:05.103Z,1.80
2022-09-26T12:23:18.918Z,1.70
2022-09-26T12:27:25.749Z,1.60
2022-09-26T12:30:01.633Z,1.70
2022-09-26T12:32:25.341Z,1.58
2022-09-26T12:34:43.113Z,1.95
2022-09-26T12:37:23.496Z,1.40
2022-09-26T12:39:40.747Z,2.00
2022-09-26T12:42:24.761Z,2.03
2022-09-26T12:44:38.068Z,2.10
2022-09-26T12:46:43.110Z,2.25
2022-09-26T12:49:13.440Z,2.42
2022-09-26T12:51:16.462Z,4.00
2022-09-26T12:53:23.543Z,2.47
2022-09-26T12:55:55.776Z,2.30
2022-09-26T12:58:03.383Z,2.00
2022-09-26T13:00:18.646Z,2.42
2022-09-26T13:02:33.604Z,2.20
2022-09-26T13:04:48.828Z,2.30
2022-09-26T13:07:20.938Z,1.88
2022-09-26T13:09:57.934Z,2.33
2022-09-26T13:12:16.817Z,2.92
2022-09-26T13:14:44.182Z,2.85
2022-09-26T13:17:14.820Z,2.60
2022-09-26T13:19:51.630Z,2.30
2022-09-26T13:22:00.266Z,3.00
2022-09-26T13:24:07.738Z,2.42
2022-09-26T13:26:25.336Z,2.40
2022-09-26T13:28:34.236Z,2.30
2022-09-26T13:30:46.883Z,2.70
2022-09-26T13:32:51.113Z,2.50
2022-09-26T13:35:05.248Z,2.95
2022-09-26T13:37:13.155Z,2.25
2022-09-26T13:39:19.119Z,2.40
2022-09-26T13:41:52.103Z,2.35
2022-09-26T13:44:32.386Z,2.25
2022-09-26T13:46:49.353Z,2.72
2022-09-26T13:49:01.027Z,2.10
2022-09-26T13:51:20.501Z,2.50
2022-09-26T13:53:40.597Z,2.53
2022-09-26T13:55:43.478Z,2.90
2022-09-26T13:58:03.552Z,2.50
2022-09-26T14:00:29.312Z,3.10
2022-09-26T14:02:31.952Z,2.35
2022-09-26T14:04:37.011Z,2.35
2022-09-26T14:06:38.777Z,2.33
2022-09-26T14:09:17.744Z,2.63
2022-09-26T14:11:33.869Z,2.58
2022-09-26T14:13:38.752Z,2.35
2022-09-26T14:15:49.322Z,2.50
2022-09-26T14:17:50.997Z,2.72
2022-09-26T14:19:54.473Z,2.75
2022-09-26T14:24:37.986Z,2.22
2022-09-26T14:26:44.221Z,2.13
2022-09-26T14:28:57.181Z,1.80
2022-09-26T14:31:13.402Z,1.70
2022-09-26T14:33:17.825Z,2.17
2022-09-26T14:35:27.863Z,1.98
2022-09-26T14:37:43.775Z,2.13
2022-09-26T14:39:46.562Z,2.08
2022-09-26T14:41:48.140Z,2.08
2022-09-26T14:43:50.960Z,1.95
2022-09-26T14:46:00.666Z,2.25
2022-09-26T14:48:11.433Z,2.10
2022-09-26T14:50:27.987Z,2.03
2022-09-26T14:52:30.787Z,2.40
2022-09-26T14:54:38.885Z,1.73
2022-09-26T14:56:44.831Z,1.90
2022-09-26T14:58:50.702Z,3.15
2022-09-26T15:00:54.729Z,2.30
2022-09-26T15:03:00.246Z,2.03
2022-09-26T15:05:06.205Z,2.08
2022-09-26T15:07:21.663Z,3.67
2022-09-26T15:09:39.807Z,3.08
2022-09-26T15:12:01.589Z,3.05
2022-09-26T15:14:14.141Z,2.97
2022-09-26T15:16:24.024Z,2.15
2022-09-26T15:18:28.566Z,2.00
2022-09-26T15:20:31.983Z,2.05
2022-09-26T15:22:34.713Z,2.03
2022-09-26T15:24:39.290Z,2.40
2022-09-26T15:26:43.174Z,2.45
2022-09-26T15:28:47.746Z,2.10
2022-09-26T15:30:50.656Z,2.20
2022-09-26T15:32:59.598Z,2.28
2022-09-26T15:35:03.248Z,2.28
2022-09-26T15:37:25.647Z,1.80
2022-09-26T15:39:30.223Z,2.13
2022-09-26T15:41:50.537Z,1.95
2022-09-26T15:44:01.004Z,1.80
2022-09-26T15:46:08.869Z,1.95
2022-09-26T15:48:33.478Z,2.03
2022-09-26T15:50:45.686Z,1.77
2022-09-26T15:52:57.152Z,1.95
2022-09-26T15:54:59.389Z,2.10
2022-09-26T15:57:02.615Z,2.08
2022-09-26T15:59:19.576Z,2.20
2022-09-26T16:01:23.981Z,2.92
2022-09-26T16:03:46.489Z,1.92
2022-09-26T16:05:48.951Z,2.33
2022-09-26T16:07:51.568Z,2.70
2022-09-26T16:09:53.867Z,1.80
2022-09-26T16:11:58.476Z,2.00
2022-09-26T16:14:00.723Z,1.95
2022-09-26T16:16:03.668Z,1.98
2022-09-26T16:18:05.779Z,2.83
2022-09-26T16:20:13.640Z,2.00
2022-09-26T16:22:36.901Z,2.08
2022-09-26T16:24:38.688Z,1.90
2022-09-26T16:26:40.752Z,2.10
2022-09-26T16:28:45.054Z,2.20
2022-09-26T16:31:10.514Z,2.38
2022-09-26T16:33:30.051Z,1.92
2022-09-26T16:35:35.444Z,2.15
2022-09-26T16:37:37.127Z,2.40
2022-09-26T16:39:39.225Z,1.98
2022-09-26T16:42:02.475Z,2.30
2022-09-26T16:44:21.650Z,1.85
2022-09-26T16:46:33.522Z,1.52
2022-09-26T16:48:42.099Z,1.75
2022-09-26T16:50:43.972Z,2.20
2022-09-26T16:52:46.036Z,2.20
2022-09-26T16:54:48.694Z,2.00
2022-09-26T16:56:54.179Z,1.80
2022-09-26T16:58:59.053Z,2.10
2022-09-26T17:01:19.257Z,2.20
2022-09-26T17:03:26.556Z,1.83
2022-09-26T17:05:28.329Z,1.92
2022-09-26T17:07:29.971Z,1.95
2022-09-26T17:09:32.009Z,2.38
2022-09-26T17:11:33.788Z,2.22
2022-09-26T17:13:35.651Z,2.42
2022-09-26T17:15:37.684Z,2.25
2022-09-26T17:17:41.099Z,1.90
2022-09-26T17:19:44.576Z,2.17
2022-09-26T17:21:47.510Z,2.17
2022-09-26T17:23:49.205Z,1.73
2022-09-26T17:25:55.379Z,2.40
2022-09-26T17:28:02.516Z,2.30
2022-09-26T17:30:05.937Z,2.35
2022-09-26T17:32:17.247Z,2.10
2022-09-26T17:34:19.147Z,3.33
2022-09-26T17:36:28.277Z,3.88
2022-09-26T17:38:30.306Z,3.80
2022-09-26T17:40:33.427Z,3.20
2022-09-26T17:42:35.086Z,2.38
2022-09-26T17:44:37.062Z,2.47
2022-09-26T17:46:40.162Z,2.90
2022-09-26T17:48:41.929Z,2.25
2022-09-26T17:50:43.673Z,2.97
2022-09-26T17:52:47.547Z,3.53
2022-09-26T17:54:52.092Z,3.50
2022-09-26T17:56:53.735Z,3.33
2022-09-26T17:58:55.897Z,3.78
2022-09-26T18:00:57.570Z,3.80
2022-09-26T18:03:03.983Z,4.35
2022-09-26T18:05:18.469Z,4.00
2022-09-26T18:07:22.073Z,3.92
2022-09-26T18:11:25.637Z,4.60
2022-09-26T18:13:31.436Z,3.85
2022-09-26T18:15:33.217Z,3.97
2022-09-26T18:17:35.545Z,4.47
2022-09-26T18:19:38.275Z,4.75
2022-09-26T18:21:40.248Z,3.90
2022-09-26T18:24:11.910Z,4.32
2022-09-26T18:26:31.396Z,3.95
2022-09-26T18:28:33.131Z,3.92
2022-09-26T18:30:42.847Z,3.97
2022-09-26T18:32:47.323Z,3.88
2022-09-26T18:34:48.945Z,3.75
2022-09-26T18:36:52.045Z,3.53
2022-09-26T18:38:53.719Z,3.80
2022-09-26T18:40:58.381Z,4.07
2022-09-26T18:43:01.411Z,3.75
2022-09-26T18:45:05.026Z,3.83
2022-09-26T18:49:13.165Z,3.10
2022-09-26T18:51:15.034Z,3.13
2022-09-26T18:53:19.239Z,3.75
2022-09-26T18:55:41.896Z,4.03
2022-09-26T18:58:01.718Z,3.80
2022-09-26T19:00:05.179Z,3.55
2022-09-26T19:02:18.852Z,3.55
2022-09-26T19:04:22.468Z,3.55
2022-09-26T19:06:30.013Z,3.78
2022-09-26T19:08:40.233Z,3.88
2022-09-26T19:10:41.913Z,3.70
2022-09-26T19:12:43.695Z,3.83
2022-09-26T19:14:45.474Z,3.90
2022-09-26T19:16:48.686Z,3.58
2022-09-26T19:18:50.812Z,3.83
2022-09-26T19:20:53.130Z,3.88
2022-09-26T19:22:55.571Z,4.85
2022-09-26T19:24:59.520Z,5.13
2022-09-26T19:27:06.491Z,4.70
2022-09-26T19:29:13.347Z,4.65
2022-09-26T19:31:15.675Z,4.63
2022-09-26T19:33:17.292Z,5.53
2022-09-26T19:35:22.059Z,5.15
2022-09-26T19:37:23.766Z,5.60
2022-09-26T19:39:26.404Z,5.75
2022-09-26T19:41:28.009Z,6.25
2022-09-26T19:43:29.922Z,6.00
2022-09-26T19:45:34.316Z,5.57
2022-09-26T19:47:37.667Z,6.32
2022-09-26T19:49:39.507Z,6.30
2022-09-26T19:51:41.199Z,7.05
2022-09-26T19:53:43.107Z,6.25
2022-09-26T19:55:48.191Z,6.32
2022-09-26T19:57:50.567Z,6.65
2022-09-26T19:59:52.228Z,6.05
2022-09-26T20:01:54.027Z,6.05
2022-09-26T20:03:55.765Z,6.10
2022-09-26T20:05:57.703Z,7.07
2022-09-26T20:07:59.423Z,6.60
2022-09-26T20:10:01.854Z,6.30
2022-09-26T20:12:03.671Z,5.88
2022-09-26T20:14:23.570Z,6.43
2022-09-26T20:16:25.334Z,6.35
2022-09-26T20:18:27.030Z,6.60
2022-09-26T20:20:28.888Z,6.57
2022-09-26T20:22:30.678Z,7.28
2022-09-26T20:24:33.639Z,6.72
2022-09-26T20:26:35.691Z,7.00
2022-09-26T20:28:37.601Z,6.82
2022-09-26T20:30:51.489Z,7.03
2022-09-26T20:32:53.820Z,7.70
2022-09-26T20:34:59.200Z,6.68
2022-09-26T20:37:00.813Z,7.82
2022-09-26T20:39:06.532Z,7.20
2022-09-26T20:41:31.916Z,7.28
2022-09-26T20:43:35.050Z,7.03
2022-09-26T20:45:40.850Z,7.90
2022-09-26T20:47:43.940Z,6.97
2022-09-26T20:50:00.412Z,7.20
2022-09-26T20:52:03.495Z,7.30
2022-09-26T20:54:06.645Z,7.32
2022-09-26T20:56:16.918Z,7.72
2022-09-26T20:58:18.780Z,7.88
2022-09-26T21:00:21.314Z,7.32
2022-09-26T21:02:27.108Z,7.40
2022-09-26T21:04:32.713Z,8.05
2022-09-26T21:06:35.113Z,8.15
2022-09-26T21:08:36.903Z,7.97
2022-09-26T21:10:38.709Z,7.00
2022-09-26T21:12:40.381Z,7.72
2022-09-26T21:14:42.425Z,7.43
2022-09-26T21:16:49.801Z,6.97
2022-09-26T21:18:52.318Z,8.27
2022-09-26T21:20:54.662Z,8.15
2022-09-26T21:22:57.014Z,8.00
2022-09-26T21:24:58.625Z,7.85
2022-09-26T21:27:00.303Z,8.35
2022-09-26T21:29:02.023Z,8.75
2022-09-26T21:31:05.498Z,8.35
2022-09-26T21:33:07.240Z,9.27
2022-09-26T21:35:09.457Z,8.18
2022-09-26T21:37:11.216Z,8.77
2022-09-26T21:39:14.105Z,8.52
2022-09-26T21:41:15.882Z,8.27
2022-09-26T21:43:19.430Z,7.47
2022-09-26T21:45:27.056Z,8.23
2022-09-26T21:47:29.395Z,7.35
2022-09-26T21:49:31.057Z,7.47
2022-09-26T21:51:33.059Z,8.45
2022-09-26T21:53:45.705Z,7.45
2022-09-26T21:55:52.215Z,7.22
2022-09-26T21:57:54.463Z,7.38
2022-09-26T21:59:57.902Z,6.65
2022-09-26T22:01:59.630Z,7.57
2022-09-26T22:04:01.526Z,7.72
2022-09-26T22:06:07.342Z,6.72
2022-09-26T22:08:09.415Z,6.20
2022-09-26T22:10:11.343Z,7.50
2022-09-26T22:12:12.995Z,6.70
2022-09-26T22:14:14.616Z,7.00
2022-09-26T22:16:16.707Z,6.80
2022-09-26T22:18:18.416Z,7.30
2022-09-26T22:20:20.253Z,7.07
2022-09-26T22:22:22.017Z,7.80
2022-09-26T22:24:23.655Z,7.68
2022-09-26T22:26:25.251Z,7.80
2022-09-26T22:28:27.324Z,8.40
2022-09-26T22:30:29.012Z,8.32
2022-09-26T22:32:30.719Z,7.50
2022-09-26T22:34:32.791Z,9.15
2022-09-26T22:36:34.480Z,8.07
2022-09-26T22:38:36.789Z,7.60
2022-09-26T22:40:38.890Z,8.30
2022-09-26T22:42:40.596Z,7.78
2022-09-26T22:44:42.395Z,7.70
2022-09-26T22:46:44.407Z,7.60
2022-09-26T22:48:46.864Z,7.53
2022-09-26T22:50:48.585Z,7.68
2022-09-26T22:52:50.350Z,8.55
2022-09-26T22:54:52.146Z,7.53
2022-09-26T22:56:53.812Z,7.65
2022-09-26T22:58:55.538Z,8.10
2022-09-26T23:01:01.088Z,7.60
2022-09-26T23:03:02.729Z,7.57
2022-09-26T23:05:04.894Z,7.38
2022-09-26T23:07:06.480Z,7.50
2022-09-26T23:09:08.118Z,7.10
2022-09-26T23:11:11.786Z,7.90
2022-09-26T23:13:13.461Z,7.47
2022-09-26T23:15:15.211Z,7.35
2022-09-26T23:17:16.952Z,7.68
2022-09-26T23:19:18.666Z,8.13
2022-09-26T23:21:25.565Z,7.90
2022-09-26T23:23:27.437Z,7.13
2022-09-26T23:25:29.112Z,7.75
2022-09-26T23:27:30.775Z,7.22
2022-09-26T23:29:32.597Z,7.47
2022-09-26T23:31:34.261Z,7.22
2022-09-26T23:33:36.423Z,7.32
2022-09-26T23:35:38.903Z,7.65
2022-09-26T23:37:40.640Z,7.18
2022-09-26T23:39:42.307Z,7.82
2022-09-26T23:41:44.141Z,7.72
2022-09-26T23:43:46.621Z,7.85
2022-09-26T23:45:49.011Z,8.18
2022-09-26T23:47:51.106Z,7.05
2022-09-26T23:49:53.312Z,7.50
2022-09-26T23:51:54.940Z,7.75
2022-09-26T23:53:56.527Z,7.65
2022-09-26T23:56:09.031Z,7.53
2022-09-26T23:58:11.412Z,8.35
